createdAt,value
2018-02-24T00:01:36.744Z,24.00
2018-02-24T00:04:03.103Z,24.87
2018-02-24T00:06:30.205Z,22.65
2018-02-24T00:08:56.590Z,23.67
2018-02-24T00:11:22.940Z,23.20
2018-02-24T00:13:49.292Z,23.30
2018-02-24T00:16:15.688Z,23.08
2018-02-24T00:18:42.060Z,25.15
2018-02-24T00:21:08.434Z,24.15
2018-02-24T00:23:35.526Z,22.67
2018-02-24T00:26:01.898Z,22.70
2018-02-24T00:28:28.255Z,24.02
2018-02-24T00:30:55.346Z,23.00
2018-02-24T00:33:22.005Z,23.30
2018-02-24T00:35:48.371Z,25.10
2018-02-24T00:38:14.733Z,22.55
2018-02-24T00:40:41.088Z,25.95
2018-02-24T00:43:07.453Z,23.55
2018-02-24T00:45:34.558Z,22.60
2018-02-24T00:48:00.934Z,23.58
2018-02-24T00:50:28.042Z,23.87
2018-02-24T00:52:54.401Z,22.73
2018-02-24T00:55:20.784Z,24.73
2018-02-24T00:57:47.173Z,24.05
2018-02-24T01:00:14.265Z,23.87
2018-02-24T01:02:40.654Z,25.45
2018-02-24T01:05:08.640Z,23.00
2018-02-24T01:07:35.001Z,22.73
2018-02-24T01:10:01.369Z,24.25
2018-02-24T01:12:27.735Z,25.45
2018-02-24T01:14:54.103Z,24.58
2018-02-24T01:17:20.458Z,27.20
2018-02-24T01:19:46.821Z,27.25
2018-02-24T01:22:13.932Z,24.45
2018-02-24T01:24:40.313Z,27.50
2018-02-24T01:27:06.720Z,27.98
2018-02-24T01:29:33.889Z,26.50
2018-02-24T01:32:00.258Z,24.90
2018-02-24T01:34:26.644Z,27.35
2018-02-24T01:36:53.739Z,28.17
2018-02-24T01:39:20.113Z,27.52
2018-02-24T01:41:47.217Z,25.98
2018-02-24T01:44:13.610Z,26.75
2018-02-24T01:46:39.977Z,26.80
2018-02-24T01:49:06.331Z,26.85
2018-02-24T01:51:32.686Z,27.23
2018-02-24T01:53:59.794Z,29.37
2018-02-24T01:56:26.165Z,27.50
2018-02-24T01:58:53.260Z,29.25
2018-02-24T02:01:19.637Z,27.48
2018-02-24T02:03:46.758Z,27.92
2018-02-24T02:06:13.130Z,26.92
2018-02-24T02:08:40.243Z,28.70
2018-02-24T02:11:06.617Z,27.37
2018-02-24T02:13:33.736Z,28.95
2018-02-24T02:16:00.098Z,26.48
2018-02-24T02:18:27.202Z,28.15
2018-02-24T02:20:53.550Z,28.33
2018-02-24T02:23:19.914Z,27.48
2018-02-24T02:25:46.278Z,27.77
2018-02-24T02:28:12.674Z,27.83
2018-02-24T02:30:39.050Z,25.25
2018-02-24T02:33:05.405Z,28.15
2018-02-24T02:35:32.512Z,27.98
2018-02-24T02:37:58.881Z,25.15
2018-02-24T02:40:25.273Z,26.33
2018-02-24T02:42:51.708Z,26.75
2018-02-24T02:45:18.101Z,27.08
2018-02-24T02:47:44.475Z,26.60
2018-02-24T02:50:10.887Z,27.20
2018-02-24T02:52:37.269Z,24.52
2018-02-24T02:55:03.634Z,26.90
2018-02-24T02:57:30.725Z,27.13
2018-02-24T02:59:57.094Z,30.85
2018-02-24T03:02:24.299Z,24.90
2018-02-24T03:04:50.680Z,28.30
2018-02-24T03:07:17.818Z,28.90
2018-02-24T03:09:44.180Z,27.08
2018-02-24T03:12:10.530Z,27.75
2018-02-24T03:14:36.897Z,28.42
2018-02-24T03:17:03.303Z,27.73
2018-02-24T03:19:29.665Z,28.50
2018-02-24T03:21:56.019Z,25.75
2018-02-24T03:24:23.132Z,28.92
2018-02-24T03:26:49.483Z,26.90
2018-02-24T03:29:15.880Z,27.40
2018-02-24T03:31:42.253Z,24.75
2018-02-24T03:34:08.713Z,28.38
2018-02-24T03:36:35.073Z,26.87
2018-02-24T03:39:01.433Z,27.08
2018-02-24T03:41:29.324Z,23.80
2018-02-24T03:43:56.436Z,26.80
2018-02-24T03:46:22.852Z,28.48
2018-02-24T03:48:49.234Z,26.20
2018-02-24T03:51:16.366Z,25.23
2018-02-24T03:53:42.719Z,26.77
2018-02-24T03:56:09.824Z,25.62
2018-02-24T03:58:36.197Z,25.80
2018-02-24T04:01:03.341Z,25.10
2018-02-24T04:03:30.447Z,24.15
2018-02-24T04:05:56.845Z,23.60
2018-02-24T04:08:23.222Z,25.62
2018-02-24T04:10:49.573Z,24.02
2018-02-24T04:13:15.939Z,25.30
2018-02-24T04:15:42.303Z,25.50
2018-02-24T04:18:08.657Z,27.02
2018-02-24T04:20:35.026Z,23.85
2018-02-24T04:23:02.118Z,25.30
2018-02-24T04:25:28.483Z,28.85
2018-02-24T04:27:54.840Z,29.67
2018-02-24T04:30:21.207Z,27.17
2018-02-24T04:32:47.609Z,30.25
2018-02-24T04:35:13.986Z,28.15
2018-02-24T04:37:40.349Z,24.80
2018-02-24T04:40:07.451Z,24.20
2018-02-24T04:42:33.824Z,23.80
2018-02-24T04:45:00.918Z,24.65
2018-02-24T04:47:27.345Z,26.42
2018-02-24T04:49:53.706Z,24.50
2018-02-24T04:52:20.262Z,25.02
2018-02-24T04:54:47.358Z,26.62
2018-02-24T04:57:13.745Z,23.52
2018-02-24T04:59:40.856Z,24.05
2018-02-24T05:02:07.204Z,23.98
2018-02-24T05:04:33.580Z,23.62
2018-02-24T05:06:59.940Z,24.35
2018-02-24T05:09:26.310Z,25.15
2018-02-24T05:11:52.671Z,26.27
2018-02-24T05:14:19.778Z,22.87
2018-02-24T05:16:46.931Z,24.27
2018-02-24T05:19:13.341Z,24.30
2018-02-24T05:21:39.698Z,24.52
2018-02-24T05:24:06.092Z,22.42
2018-02-24T05:26:32.446Z,24.27
2018-02-24T05:28:58.846Z,23.35
2018-02-24T05:31:25.231Z,22.52
2018-02-24T05:33:51.589Z,23.48
2018-02-24T05:36:18.707Z,22.70
2018-02-24T05:38:45.080Z,27.30
2018-02-24T05:41:11.448Z,24.70
2018-02-24T05:43:37.813Z,25.80
2018-02-24T05:46:04.918Z,28.10
2018-02-24T05:48:31.317Z,26.52
2018-02-24T05:50:57.710Z,26.55
2018-02-24T05:53:24.086Z,24.70
2018-02-24T05:55:50.461Z,26.67
2018-02-24T05:58:16.842Z,26.02
2018-02-24T06:00:43.193Z,23.42
2018-02-24T06:03:09.546Z,21.80
2018-02-24T06:05:35.893Z,25.40
2018-02-24T06:08:02.265Z,25.88
2018-02-24T06:10:28.630Z,25.60
2018-02-24T06:12:55.038Z,25.02
2018-02-24T06:15:21.424Z,25.42
2018-02-24T06:17:47.790Z,26.02
2018-02-24T06:20:14.159Z,30.80
2018-02-24T06:22:41.284Z,25.17
2018-02-24T06:25:07.659Z,21.87
2018-02-24T06:27:34.070Z,24.83
2018-02-24T06:30:00.429Z,27.30
2018-02-24T06:32:26.821Z,28.08
2018-02-24T06:34:53.229Z,58.38
2018-02-24T06:37:19.592Z,43.10
2018-02-24T06:39:46.010Z,30.83
2018-02-24T06:42:12.390Z,28.95
2018-02-24T06:44:39.499Z,29.10
2018-02-24T06:47:05.849Z,31.65
2018-02-24T06:49:32.207Z,27.87
2018-02-24T06:51:59.316Z,37.50
2018-02-24T06:54:25.665Z,35.40
2018-02-24T06:56:52.042Z,30.10
2018-02-24T06:59:18.413Z,30.60
2018-02-24T07:01:44.791Z,27.37
2018-02-24T07:04:11.903Z,30.02
2018-02-24T07:06:38.262Z,33.40
2018-02-24T07:09:05.371Z,30.23
2018-02-24T07:11:31.740Z,30.67
2018-02-24T07:13:58.863Z,28.92
2018-02-24T07:16:25.228Z,24.60
2018-02-24T07:18:52.315Z,51.20
2018-02-24T07:21:18.678Z,46.95
2018-02-24T07:23:45.054Z,34.80
2018-02-24T07:26:11.416Z,35.75
2018-02-24T07:28:37.811Z,45.65
2018-02-24T07:31:04.892Z,30.25
2018-02-24T07:33:31.321Z,29.98
2018-02-24T07:35:57.670Z,30.25
2018-02-24T07:38:24.030Z,29.23
2018-02-24T07:40:50.378Z,40.10
2018-02-24T07:43:17.482Z,31.05
2018-02-24T07:45:43.829Z,30.40
2018-02-24T07:48:11.680Z,32.83
2018-02-24T07:50:38.088Z,29.67
2018-02-24T07:53:04.453Z,27.60
2018-02-24T07:55:31.237Z,33.63
2018-02-24T07:57:57.595Z,36.78
2018-02-24T08:00:23.950Z,32.10
2018-02-24T08:02:50.332Z,38.15
2018-02-24T08:05:16.747Z,35.22
2018-02-24T08:07:43.896Z,28.40
2018-02-24T08:10:11.220Z,41.10
2018-02-24T08:12:37.609Z,29.00
2018-02-24T08:15:04.038Z,27.02
2018-02-24T08:17:30.482Z,27.00
2018-02-24T08:19:56.818Z,26.35
2018-02-24T08:22:23.188Z,26.10
2018-02-24T08:24:49.562Z,28.27
2018-02-24T08:27:15.936Z,50.38
2018-02-24T08:29:42.295Z,146.85
2018-02-24T08:32:09.456Z,48.95
2018-02-24T08:34:35.829Z,38.67
2018-02-24T08:37:02.231Z,35.38
2018-02-24T08:39:28.634Z,39.27
2018-02-24T08:41:55.020Z,35.90
2018-02-24T08:44:21.396Z,30.77
2018-02-24T08:46:48.504Z,31.10
2018-02-24T08:49:14.883Z,27.98
2018-02-24T08:51:41.255Z,28.67
2018-02-24T08:54:07.618Z,31.03
2018-02-24T08:56:33.985Z,29.33
2018-02-24T09:01:34.393Z,29.07
2018-02-24T09:04:00.779Z,30.97
2018-02-24T09:06:27.145Z,28.80
2018-02-24T09:08:53.983Z,29.47
2018-02-24T09:11:20.355Z,27.10
2018-02-24T09:13:46.757Z,25.77
2018-02-24T09:16:13.143Z,27.43
2018-02-24T09:18:39.531Z,26.53
2018-02-24T09:21:05.951Z,26.13
2018-02-24T09:23:32.357Z,28.00
2018-02-24T09:25:58.709Z,18.70
2018-02-24T09:28:25.066Z,17.90
2018-02-24T09:30:52.236Z,18.58
2018-02-24T09:33:18.559Z,20.20
2018-02-24T09:35:45.695Z,21.05
2018-02-24T09:38:12.044Z,18.70
2018-02-24T09:40:39.163Z,17.60
2018-02-24T09:43:05.544Z,18.93
2018-02-24T09:45:31.911Z,18.80
2018-02-24T09:47:58.288Z,19.02
2018-02-24T09:50:25.387Z,16.20
2018-02-24T09:52:51.780Z,13.48
2018-02-24T09:55:18.149Z,15.38
2018-02-24T09:57:44.505Z,14.43
2018-02-24T10:00:10.862Z,13.73
2018-02-24T10:02:37.978Z,14.02
2018-02-24T10:05:04.379Z,12.85
2018-02-24T10:07:30.759Z,14.93
2018-02-24T10:09:57.907Z,13.93
2018-02-24T10:12:24.382Z,12.75
2018-02-24T10:14:50.768Z,13.75
2018-02-24T10:17:17.139Z,10.95
2018-02-24T10:19:43.544Z,12.00
2018-02-24T10:22:10.721Z,11.02
2018-02-24T10:24:37.128Z,12.13
2018-02-24T10:27:04.250Z,13.10
2018-02-24T10:29:30.599Z,12.55
2018-02-24T10:31:56.967Z,12.60
2018-02-24T10:34:23.377Z,11.52
2018-02-24T10:36:49.806Z,13.48
2018-02-24T10:39:16.919Z,12.68
2018-02-24T10:41:43.257Z,12.32
2018-02-24T10:44:09.640Z,13.23
2018-02-24T10:46:36.002Z,13.48
2018-02-24T10:49:12.655Z,14.65
2018-02-24T10:51:39.023Z,13.80
2018-02-24T10:54:05.388Z,13.55
2018-02-24T10:56:32.494Z,13.52
2018-02-24T10:58:58.901Z,14.18
2018-02-24T11:01:25.289Z,13.70
2018-02-24T11:03:51.627Z,12.85
2018-02-24T11:06:18.727Z,13.23
2018-02-24T11:08:45.090Z,12.35
2018-02-24T11:11:11.514Z,12.02
2018-02-24T11:13:37.914Z,11.65
2018-02-24T11:16:04.297Z,11.70
2018-02-24T11:18:31.412Z,13.30
2018-02-24T11:20:57.772Z,14.68
2018-02-24T11:23:24.143Z,12.13
2018-02-24T11:25:50.519Z,14.20
2018-02-24T11:28:16.895Z,12.50
2018-02-24T11:30:43.250Z,12.65
2018-02-24T11:33:09.611Z,12.20
2018-02-24T11:35:35.992Z,12.15
2018-02-24T11:38:02.529Z,11.80
2018-02-24T11:40:28.866Z,11.10
2018-02-24T11:42:55.247Z,11.03
2018-02-24T11:45:21.622Z,13.27
2018-02-24T11:47:47.991Z,11.33
2018-02-24T11:50:14.356Z,11.38
2018-02-24T11:52:40.738Z,10.45
2018-02-24T11:55:07.947Z,10.15
2018-02-24T11:57:35.069Z,11.55
2018-02-24T12:00:01.451Z,11.35
2018-02-24T12:02:27.830Z,11.82
2018-02-24T12:04:54.222Z,11.12
2018-02-24T12:07:20.602Z,9.68
2018-02-24T12:09:47.759Z,9.90
2018-02-24T12:12:14.150Z,10.18
2018-02-24T12:14:40.546Z,10.20
2018-02-24T12:17:06.938Z,10.93
2018-02-24T12:19:33.315Z,10.13
2018-02-24T12:21:59.696Z,8.45
2018-02-24T12:24:26.060Z,10.25
2018-02-24T12:26:53.178Z,8.55
2018-02-24T12:29:19.558Z,8.27
2018-02-24T12:31:45.944Z,10.80
2018-02-24T12:34:12.316Z,9.35
2018-02-24T12:36:38.684Z,8.88
2018-02-24T12:39:05.100Z,9.15
2018-02-24T12:41:31.452Z,7.70
2018-02-24T12:43:57.809Z,8.27
2018-02-24T12:46:24.192Z,8.60
2018-02-24T12:48:50.575Z,8.30
2018-02-24T12:51:17.698Z,8.27
2018-02-24T12:53:44.093Z,8.93
2018-02-24T12:56:10.470Z,7.93
2018-02-24T12:58:37.598Z,9.00
2018-02-24T13:01:03.987Z,8.43
2018-02-24T13:03:31.096Z,9.18
2018-02-24T13:05:57.468Z,9.23
2018-02-24T13:08:24.596Z,8.27
2018-02-24T13:10:50.962Z,9.38
2018-02-24T13:13:17.353Z,8.95
2018-02-24T13:15:43.726Z,9.23
2018-02-24T13:18:10.100Z,8.10
2018-02-24T13:20:36.500Z,9.00
2018-02-24T13:23:02.926Z,8.03
2018-02-24T13:25:29.285Z,9.43
2018-02-24T13:27:55.707Z,9.50
2018-02-24T13:30:22.124Z,10.75
2018-02-24T13:32:48.522Z,10.68
2018-02-24T13:35:15.642Z,8.65
2018-02-24T13:37:42.036Z,7.90
2018-02-24T13:40:09.438Z,7.12
2018-02-24T13:42:35.874Z,7.03
2018-02-24T13:45:02.266Z,7.32
2018-02-24T13:47:28.674Z,6.22
2018-02-24T13:49:55.778Z,5.87
2018-02-24T13:52:22.143Z,6.30
2018-02-24T13:54:49.244Z,7.00
2018-02-24T13:57:15.602Z,6.62
2018-02-24T13:59:42.726Z,5.90
2018-02-24T14:02:09.090Z,5.57
2018-02-24T14:04:35.453Z,6.47
2018-02-24T14:07:01.846Z,5.97
2018-02-24T14:09:28.212Z,5.82
2018-02-24T14:11:55.310Z,4.53
2018-02-24T14:14:21.696Z,6.12
2018-02-24T14:16:48.052Z,6.78
2018-02-24T14:19:14.425Z,5.95
2018-02-24T14:21:41.522Z,6.03
2018-02-24T14:24:08.191Z,5.45
2018-02-24T14:26:34.580Z,5.35
2018-02-24T14:29:00.950Z,6.25
2018-02-24T14:31:27.342Z,6.35
2018-02-24T14:33:53.748Z,7.05
2018-02-24T14:36:20.773Z,6.85
2018-02-24T14:38:47.177Z,7.47
2018-02-24T14:41:13.607Z,8.02
2018-02-24T14:43:39.988Z,6.37
2018-02-24T14:46:07.091Z,6.45
2018-02-24T14:48:33.455Z,6.18
2018-02-24T14:51:01.300Z,9.85
2018-02-24T14:53:27.681Z,6.70
2018-02-24T14:55:54.064Z,6.40
2018-02-24T14:58:20.428Z,7.75
2018-02-24T15:00:47.524Z,6.80
2018-02-24T15:03:13.892Z,6.45
2018-02-24T15:05:40.266Z,6.22
2018-02-24T15:08:06.631Z,6.60
2018-02-24T15:10:32.999Z,7.28
2018-02-24T15:12:59.362Z,7.53
2018-02-24T15:15:25.713Z,5.97
2018-02-24T15:17:52.104Z,6.40
2018-02-24T15:20:19.247Z,6.72
2018-02-24T15:22:45.609Z,7.22
2018-02-24T15:25:12.011Z,5.78
2018-02-24T15:27:39.153Z,5.78
2018-02-24T15:30:05.520Z,5.72
2018-02-24T15:32:31.897Z,5.50
2018-02-24T15:34:58.278Z,6.80
2018-02-24T15:37:24.701Z,6.28
2018-02-24T15:39:51.794Z,5.90
2018-02-24T15:42:18.151Z,5.95
2018-02-24T15:44:44.598Z,6.15
2018-02-24T15:47:11.702Z,6.25
2018-02-24T15:49:38.115Z,5.78
2018-02-24T15:52:04.472Z,6.18
2018-02-24T15:54:30.855Z,6.50
2018-02-24T15:56:58.017Z,6.47
2018-02-24T15:59:24.385Z,5.20
2018-02-24T16:01:50.742Z,6.30
2018-02-24T16:04:17.142Z,6.82
2018-02-24T16:06:43.542Z,6.37
2018-02-24T16:09:10.651Z,6.55
2018-02-24T16:11:37.026Z,5.70
2018-02-24T16:14:03.387Z,6.32
2018-02-24T16:16:29.786Z,8.90
2018-02-24T16:18:56.143Z,6.25
2018-02-24T16:21:22.514Z,6.75
2018-02-24T16:23:48.866Z,6.05
2018-02-24T16:26:15.952Z,7.18
2018-02-24T16:28:42.321Z,5.28
2018-02-24T16:31:08.670Z,5.43
2018-02-24T16:33:35.767Z,6.75
2018-02-24T16:36:02.138Z,5.05
2018-02-24T16:38:28.540Z,6.82
2018-02-24T16:40:54.902Z,6.87
2018-02-24T16:43:21.315Z,6.87
2018-02-24T16:45:47.667Z,7.50
2018-02-24T16:48:14.105Z,6.43
2018-02-24T16:50:40.460Z,6.05
2018-02-24T16:53:06.852Z,5.55
2018-02-24T16:55:33.203Z,5.60
2018-02-24T16:58:00.295Z,5.25
2018-02-24T17:00:26.667Z,5.50
2018-02-24T17:02:53.027Z,5.82
2018-02-24T17:05:20.127Z,6.10
2018-02-24T17:07:46.471Z,8.20
2018-02-24T17:10:12.861Z,6.43
2018-02-24T17:12:39.227Z,7.05
2018-02-24T17:15:05.614Z,5.45
2018-02-24T17:17:31.972Z,6.60
2018-02-24T17:19:58.321Z,5.70
2018-02-24T17:22:24.676Z,6.55
2018-02-24T17:24:51.773Z,6.68
2018-02-24T17:27:18.125Z,5.95
2018-02-24T17:29:44.519Z,6.25
2018-02-24T17:32:10.905Z,6.78
2018-02-24T17:34:37.270Z,7.85
2018-02-24T17:37:04.386Z,7.00
2018-02-24T17:39:32.239Z,7.70
2018-02-24T17:41:58.718Z,5.57
2018-02-24T17:44:25.836Z,5.57
2018-02-24T17:46:52.242Z,6.78
2018-02-24T17:49:18.594Z,5.87
2018-02-24T17:51:44.979Z,5.65
2018-02-24T17:54:11.349Z,6.12
2018-02-24T17:56:37.714Z,5.70
2018-02-24T17:59:04.147Z,5.97
2018-02-24T18:01:31.276Z,5.70
2018-02-24T18:03:59.213Z,6.93
2018-02-24T18:06:25.578Z,6.50
2018-02-24T18:08:52.831Z,5.70
2018-02-24T18:11:19.183Z,7.03
2018-02-24T18:13:46.293Z,6.37
2018-02-24T18:16:12.666Z,6.20
2018-02-24T18:18:39.028Z,6.45
2018-02-24T18:21:05.971Z,7.25
2018-02-24T18:23:32.328Z,7.07
2018-02-24T18:25:58.709Z,7.15
2018-02-24T18:28:25.078Z,7.10
2018-02-24T18:30:51.420Z,6.32
2018-02-24T18:33:17.804Z,6.50
2018-02-24T18:35:44.196Z,6.97
2018-02-24T18:38:10.564Z,7.60
2018-02-24T18:40:36.923Z,6.97
2018-02-24T18:43:03.288Z,8.27
2018-02-24T18:45:29.754Z,7.68
2018-02-24T18:47:56.092Z,7.50
2018-02-24T18:50:22.450Z,7.72
2018-02-24T18:52:48.870Z,7.85
2018-02-24T18:55:15.228Z,8.82
2018-02-24T18:57:41.654Z,8.00
2018-02-24T19:00:08.040Z,7.53
2018-02-24T19:02:35.200Z,8.75
2018-02-24T19:05:01.553Z,7.87
2018-02-24T19:07:27.914Z,8.75
2018-02-24T19:09:54.293Z,9.23
2018-02-24T19:12:20.669Z,9.18
2018-02-24T19:14:47.042Z,8.77
2018-02-24T19:17:14.208Z,8.65
2018-02-24T19:19:40.639Z,7.50
2018-02-24T19:22:07.747Z,7.97
2018-02-24T19:24:34.123Z,10.13
2018-02-24T19:27:00.707Z,7.95
2018-02-24T19:29:27.882Z,7.22
2018-02-24T19:31:55.021Z,8.45
2018-02-24T19:34:21.374Z,8.07
2018-02-24T19:36:48.479Z,8.65
2018-02-24T19:39:14.873Z,9.48
2018-02-24T19:41:41.576Z,8.80
2018-02-24T19:44:08.682Z,7.62
2018-02-24T19:46:35.108Z,9.10
2018-02-24T19:49:01.496Z,8.85
2018-02-24T19:51:28.599Z,9.20
2018-02-24T19:53:54.958Z,8.38
2018-02-24T19:56:21.384Z,9.43
2018-02-24T19:58:49.292Z,8.88
2018-02-24T20:01:15.833Z,9.55
2018-02-24T20:03:43.050Z,10.13
2018-02-24T20:06:10.194Z,8.73
2018-02-24T20:08:36.553Z,10.15
2018-02-24T20:11:03.687Z,10.80
2018-02-24T20:13:30.089Z,9.55
2018-02-24T20:15:56.456Z,10.07
2018-02-24T20:18:23.600Z,9.50
2018-02-24T20:20:50.721Z,9.82
2018-02-24T20:23:17.123Z,10.35
2018-02-24T20:25:43.512Z,9.80
2018-02-24T20:28:10.651Z,10.35
2018-02-24T20:30:36.994Z,10.80
2018-02-24T20:33:04.107Z,10.90
2018-02-24T20:35:30.460Z,10.75
2018-02-24T20:37:56.847Z,9.50
2018-02-24T20:40:23.263Z,10.35
2018-02-24T20:42:50.175Z,9.60
2018-02-24T20:45:16.529Z,9.85
2018-02-24T20:47:42.898Z,11.25
2018-02-24T20:50:09.250Z,10.55
2018-02-24T20:52:35.724Z,10.70
2018-02-24T20:55:02.997Z,11.23
2018-02-24T20:57:29.559Z,11.43
2018-02-24T20:59:55.946Z,11.80
2018-02-24T21:02:22.301Z,10.25
2018-02-24T21:04:48.678Z,12.25
2018-02-24T21:07:15.088Z,12.45
2018-02-24T21:09:41.493Z,12.95
2018-02-24T21:12:07.877Z,12.05
2018-02-24T21:14:34.995Z,11.35
2018-02-24T21:17:01.367Z,12.98
2018-02-24T21:19:28.458Z,13.13
2018-02-24T21:21:54.820Z,12.40
2018-02-24T21:24:21.208Z,13.88
2018-02-24T21:26:47.564Z,14.43
2018-02-24T21:29:13.928Z,12.73
2018-02-24T21:31:40.292Z,12.23
2018-02-24T21:34:06.685Z,14.10
2018-02-24T21:36:33.302Z,14.32
2018-02-24T21:38:59.655Z,11.60
2018-02-24T21:41:26.028Z,13.10
2018-02-24T21:43:52.403Z,12.98
2018-02-24T21:46:18.765Z,12.85
2018-02-24T21:48:45.872Z,11.35
2018-02-24T21:51:12.292Z,12.70
2018-02-24T21:53:38.718Z,12.37
2018-02-24T21:56:05.122Z,11.90
2018-02-24T21:58:31.483Z,13.25
2018-02-24T22:00:57.897Z,14.50
2018-02-24T22:03:24.269Z,15.35
2018-02-24T22:05:50.632Z,14.40
2018-02-24T22:08:16.985Z,13.50
2018-02-24T22:10:43.478Z,15.50
2018-02-24T22:13:09.847Z,14.63
2018-02-24T22:15:36.247Z,12.75
2018-02-24T22:18:02.604Z,12.77
2018-02-24T22:20:29.710Z,14.82
2018-02-24T22:22:56.116Z,13.07
2018-02-24T22:25:22.463Z,13.00
2018-02-24T22:27:48.832Z,15.10
2018-02-24T22:30:15.933Z,12.73
2018-02-24T22:32:42.291Z,12.68
2018-02-24T22:35:08.660Z,12.50
2018-02-24T22:37:35.758Z,14.27
2018-02-24T22:40:02.167Z,12.65
2018-02-24T22:42:28.530Z,11.50
2018-02-24T22:44:54.882Z,13.90
2018-02-24T22:47:22.031Z,12.02
2018-02-24T22:49:49.167Z,11.55
2018-02-24T22:52:15.509Z,12.18
2018-02-24T22:54:41.867Z,12.95
2018-02-24T22:57:11.056Z,12.02
2018-02-24T22:59:37.464Z,12.13
2018-02-24T23:02:04.577Z,11.80
2018-02-24T23:04:30.962Z,12.80
2018-02-24T23:07:00.169Z,13.50
2018-02-24T23:09:26.534Z,14.95
2018-02-24T23:11:52.897Z,12.70
2018-02-24T23:14:19.301Z,14.73
2018-02-24T23:16:45.716Z,13.38
2018-02-24T23:19:12.102Z,13.10
2018-02-24T23:21:39.202Z,17.30
2018-02-24T23:24:05.575Z,17.50
2018-02-24T23:26:31.916Z,17.10
2018-02-24T23:28:58.276Z,16.10
2018-02-24T23:31:24.653Z,15.23
2018-02-24T23:33:51.007Z,13.18
2018-02-24T23:36:18.136Z,14.68
2018-02-24T23:38:44.543Z,14.65
2018-02-24T23:41:10.895Z,13.48
2018-02-24T23:43:37.253Z,16.35
2018-02-24T23:46:03.608Z,15.20
2018-02-24T23:48:30.003Z,14.13
2018-02-24T23:50:57.867Z,14.05
2018-02-24T23:53:24.239Z,14.60
2018-02-24T23:55:50.636Z,15.30
2018-02-24T23:58:18.532Z,15.43
